createdAt,value
2022-08-17T00:00:43.678Z,21.71
2022-08-17T00:03:23.971Z,21.69
2022-08-17T00:06:40.843Z,21.63
2022-08-17T00:09:10.908Z,21.55
2022-08-17T00:12:40.550Z,21.46
2022-08-17T00:14:49.240Z,21.49
2022-08-17T00:17:26.698Z,21.47
2022-08-17T00:20:01.096Z,21.56
2022-08-17T00:22:36.821Z,21.52
2022-08-17T00:25:15.202Z,21.52
2022-08-17T00:27:46.067Z,21.45
2022-08-17T00:30:20.389Z,21.48
2022-08-17T00:33:11.959Z,21.44
2022-08-17T00:35:46.123Z,21.53
2022-08-17T00:38:17.367Z,21.45
2022-08-17T00:40:49.844Z,21.58
2022-08-17T00:43:28.398Z,21.51
2022-08-17T00:46:05.891Z,21.42
2022-08-17T00:48:37.890Z,21.23
2022-08-17T00:51:11.988Z,21.12
2022-08-17T00:53:43.212Z,21.02
2022-08-17T00:56:18.275Z,20.99
2022-08-17T00:58:45.727Z,21.03
2022-08-17T01:01:21.830Z,21.06
2022-08-17T01:03:51.132Z,20.90
2022-08-17T01:06:25.100Z,20.96
2022-08-17T01:08:57.550Z,20.89
2022-08-17T01:11:26.355Z,20.92
2022-08-17T01:13:56.589Z,20.80
2022-08-17T01:16:25.841Z,20.79
2022-08-17T01:19:01.163Z,20.94
2022-08-17T01:22:00.208Z,21.00
2022-08-17T01:24:34.986Z,20.98
2022-08-17T01:27:03.626Z,21.03
2022-08-17T01:29:39.315Z,20.91
2022-08-17T01:32:09.615Z,20.93
2022-08-17T01:34:43.526Z,20.88
2022-08-17T01:37:28.525Z,20.89
2022-08-17T01:40:03.009Z,20.96
2022-08-17T01:42:39.376Z,20.88
2022-08-17T01:45:12.758Z,20.75
2022-08-17T01:47:43.566Z,20.72
2022-08-17T01:50:23.555Z,20.65
2022-08-17T01:52:52.449Z,20.46
2022-08-17T01:55:27.089Z,20.42
2022-08-17T01:57:55.563Z,20.48
2022-08-17T02:00:27.129Z,20.40
2022-08-17T02:03:14.770Z,20.50
2022-08-17T02:05:45.829Z,20.26
2022-08-17T02:08:19.922Z,20.23
2022-08-17T02:10:50.540Z,20.19
2022-08-17T02:13:22.210Z,20.17
2022-08-17T02:15:53.543Z,20.18
2022-08-17T02:18:20.860Z,20.25
2022-08-17T02:20:51.772Z,20.39
2022-08-17T02:23:21.858Z,20.44
2022-08-17T02:25:57.515Z,20.39
2022-08-17T02:28:25.404Z,21.17
2022-08-17T02:31:01.517Z,21.93
2022-08-17T02:33:41.585Z,22.34
2022-08-17T02:36:13.984Z,22.28
2022-08-17T02:38:41.754Z,22.54
2022-08-17T02:41:13.018Z,23.05
2022-08-17T02:43:43.600Z,22.70
2022-08-17T02:46:13.758Z,22.14
2022-08-17T02:48:44.689Z,22.10
2022-08-17T02:51:14.839Z,22.03
2022-08-17T02:53:44.974Z,22.24
2022-08-17T02:56:12.660Z,22.33
2022-08-17T02:58:39.962Z,21.91
2022-08-17T03:01:08.381Z,22.27
2022-08-17T03:03:35.795Z,22.31
2022-08-17T03:06:06.980Z,22.07
2022-08-17T03:08:40.722Z,22.03
2022-08-17T03:11:11.216Z,21.76
2022-08-17T03:13:41.661Z,22.03
2022-08-17T03:16:11.829Z,22.32
2022-08-17T03:18:39.043Z,22.52
2022-08-17T03:21:07.619Z,22.38
2022-08-17T03:23:38.795Z,22.18
2022-08-17T03:26:06.380Z,22.19
2022-08-17T03:28:41.365Z,22.28
2022-08-17T03:31:08.776Z,21.98
2022-08-17T03:33:38.872Z,21.96
2022-08-17T03:36:06.272Z,21.98
2022-08-17T03:38:39.090Z,22.22
2022-08-17T03:41:08.217Z,22.35
2022-08-17T03:43:35.907Z,22.44
2022-08-17T03:46:03.784Z,22.03
2022-08-17T03:48:39.597Z,22.25
2022-08-17T03:51:14.864Z,22.20
2022-08-17T03:53:47.551Z,22.04
2022-08-17T03:56:18.545Z,22.19
2022-08-17T03:58:52.602Z,22.18
2022-08-17T04:01:22.926Z,22.35
2022-08-17T04:03:59.873Z,22.11
2022-08-17T04:06:30.122Z,22.19
2022-08-17T04:08:57.771Z,22.13
2022-08-17T04:11:25.075Z,22.36
2022-08-17T04:13:52.349Z,22.25
2022-08-17T04:16:19.969Z,22.32
2022-08-17T04:18:51.028Z,22.13
2022-08-17T04:21:21.948Z,22.13
2022-08-17T04:23:49.176Z,22.19
2022-08-17T04:26:52.941Z,22.10
2022-08-17T04:29:06.956Z,22.08
2022-08-17T04:31:35.918Z,21.84
2022-08-17T04:34:11.112Z,22.08
2022-08-17T04:36:38.798Z,22.02
2022-08-17T04:39:09.497Z,21.84
2022-08-17T04:41:39.129Z,22.22
2022-08-17T04:44:36.810Z,21.92
2022-08-17T04:47:08.613Z,22.02
2022-08-17T04:49:38.443Z,22.17
2022-08-17T04:52:09.042Z,21.93
2022-08-17T04:54:58.979Z,22.11
2022-08-17T04:57:31.765Z,22.26
2022-08-17T05:00:12.798Z,22.04
2022-08-17T05:02:50.595Z,22.22
2022-08-17T05:05:39.314Z,22.19
2022-08-17T05:08:10.092Z,21.88
2022-08-17T05:10:39.133Z,22.02
2022-08-17T05:13:15.559Z,22.16
2022-08-17T05:15:47.926Z,22.17
2022-08-17T05:18:19.577Z,22.41
2022-08-17T05:20:47.165Z,21.92
2022-08-17T05:23:18.516Z,22.13
2022-08-17T05:25:49.763Z,22.33
2022-08-17T05:28:24.187Z,22.44
2022-08-17T05:30:59.260Z,22.52
2022-08-17T05:33:32.314Z,22.64
2022-08-17T05:36:05.182Z,22.53
2022-08-17T05:38:32.769Z,22.74
2022-08-17T05:41:04.123Z,22.75
2022-08-17T05:43:35.695Z,22.86
2022-08-17T05:46:06.226Z,23.09
2022-08-17T05:48:39.580Z,23.11
2022-08-17T05:51:07.539Z,23.22
2022-08-17T05:53:41.776Z,23.43
2022-08-17T05:56:29.431Z,23.30
2022-08-17T05:59:00.565Z,23.46
2022-08-17T06:01:46.610Z,23.47
2022-08-17T06:04:22.577Z,23.68
2022-08-17T06:06:55.930Z,23.76
2022-08-17T06:09:39.552Z,23.97
2022-08-17T06:12:19.026Z,24.10
2022-08-17T06:14:49.928Z,24.32
2022-08-17T06:17:22.200Z,24.56
2022-08-17T06:20:19.107Z,24.70
2022-08-17T06:22:52.730Z,24.66
2022-08-17T06:25:30.152Z,24.76
2022-08-17T06:28:07.238Z,24.92
2022-08-17T06:30:59.583Z,25.02
2022-08-17T06:33:39.235Z,25.17
2022-08-17T06:36:16.620Z,25.36
2022-08-17T06:38:45.257Z,25.36
2022-08-17T06:41:19.316Z,25.50
2022-08-17T06:43:56.116Z,25.49
2022-08-17T06:46:35.508Z,25.77
2022-08-17T06:49:05.765Z,25.85
2022-08-17T06:51:38.248Z,25.84
2022-08-17T06:54:29.245Z,26.10
2022-08-17T06:56:58.904Z,26.26
2022-08-17T06:59:34.745Z,26.37
2022-08-17T07:03:02.644Z,26.62
2022-08-17T07:05:33.123Z,26.68
2022-08-17T07:08:03.159Z,26.82
2022-08-17T07:10:50.610Z,26.86
2022-08-17T07:13:24.352Z,26.99
2022-08-17T07:15:59.383Z,27.16
2022-08-17T07:18:29.756Z,27.33
2022-08-17T07:21:00.345Z,27.57
2022-08-17T07:23:46.111Z,27.65
2022-08-17T07:26:16.323Z,27.68
2022-08-17T07:28:44.150Z,27.80
2022-08-17T07:31:17.162Z,27.97
2022-08-17T07:34:04.552Z,28.09
2022-08-17T07:36:32.246Z,28.01
2022-08-17T07:39:06.404Z,28.08
2022-08-17T07:41:57.840Z,27.98
2022-08-17T07:44:29.342Z,28.21
2022-08-17T07:46:56.946Z,28.32
2022-08-17T07:49:33.285Z,28.38
2022-08-17T07:52:24.302Z,28.55
2022-08-17T07:54:58.565Z,28.66
2022-08-17T07:57:35.942Z,28.84
2022-08-17T08:00:16.389Z,28.86
2022-08-17T08:02:47.341Z,28.88
2022-08-17T08:05:44.284Z,28.93
2022-08-17T08:08:27.208Z,28.96
2022-08-17T08:11:24.191Z,29.08
2022-08-17T08:13:51.523Z,29.25
2022-08-17T08:16:28.945Z,29.23
2022-08-17T08:18:59.035Z,29.32
2022-08-17T08:21:38.577Z,29.35
2022-08-17T08:24:31.981Z,29.45
2022-08-17T08:27:08.244Z,29.52
2022-08-17T08:29:47.363Z,29.61
2022-08-17T08:32:14.551Z,29.67
2022-08-17T08:35:00.643Z,29.58
2022-08-17T08:37:45.438Z,29.74
2022-08-17T08:40:18.874Z,29.81
2022-08-17T08:43:06.326Z,29.83
2022-08-17T08:45:40.017Z,29.96
2022-08-17T08:48:45.949Z,30.02
2022-08-17T08:51:28.686Z,30.07
2022-08-17T08:54:03.810Z,30.19
2022-08-17T08:56:36.930Z,30.20
2022-08-17T08:59:04.127Z,30.25
2022-08-17T09:01:42.532Z,30.32
2022-08-17T09:04:25.543Z,30.17
2022-08-17T09:07:01.904Z,30.31
2022-08-17T09:09:32.432Z,30.32
2022-08-17T09:12:03.927Z,30.42
2022-08-17T09:14:43.111Z,30.51
2022-08-17T09:17:18.399Z,30.60
2022-08-17T09:19:52.314Z,30.54
2022-08-17T09:22:34.809Z,30.70
2022-08-17T09:25:10.851Z,30.72
2022-08-17T09:27:38.053Z,30.70
2022-08-17T09:30:09.956Z,30.60
2022-08-17T09:32:45.130Z,30.56
2022-08-17T09:35:17.503Z,30.52
2022-08-17T09:37:47.561Z,30.68
2022-08-17T09:40:21.100Z,30.70
2022-08-17T09:43:00.733Z,30.83
2022-08-17T09:45:35.184Z,30.79
2022-08-17T09:48:14.193Z,30.88
2022-08-17T09:51:05.983Z,30.93
2022-08-17T09:53:37.724Z,30.94
2022-08-17T09:56:23.720Z,30.99
2022-08-17T09:59:05.930Z,31.17
2022-08-17T10:01:43.127Z,31.29
2022-08-17T10:04:28.906Z,31.25
2022-08-17T10:07:18.998Z,31.26
2022-08-17T10:10:13.583Z,31.27
2022-08-17T10:13:17.691Z,31.30
2022-08-17T10:16:15.242Z,31.22
2022-08-17T10:18:59.896Z,31.39
2022-08-17T10:21:34.562Z,31.37
2022-08-17T10:24:21.130Z,31.40
2022-08-17T10:26:56.864Z,31.43
2022-08-17T10:29:49.058Z,31.32
2022-08-17T10:32:29.502Z,31.44
2022-08-17T10:34:59.976Z,31.42
2022-08-17T10:37:30.051Z,31.43
2022-08-17T10:40:19.541Z,31.54
2022-08-17T10:43:09.997Z,31.59
2022-08-17T10:45:46.954Z,31.52
2022-08-17T10:48:23.590Z,31.66
2022-08-17T10:51:04.000Z,31.65
2022-08-17T10:53:31.561Z,31.62
2022-08-17T10:56:14.005Z,31.63
2022-08-17T10:58:50.564Z,31.69
2022-08-17T11:01:24.701Z,31.61
2022-08-17T11:03:56.938Z,31.73
2022-08-17T11:06:34.926Z,31.75
2022-08-17T11:09:07.914Z,31.76
2022-08-17T11:11:47.355Z,31.88
2022-08-17T11:14:27.156Z,31.78
2022-08-17T11:16:57.237Z,31.62
2022-08-17T11:19:33.294Z,31.69
2022-08-17T11:22:06.472Z,31.67
2022-08-17T11:24:33.689Z,31.70
2022-08-17T11:27:12.357Z,31.67
2022-08-17T11:30:02.109Z,31.90
2022-08-17T11:32:29.852Z,31.95
2022-08-17T11:35:26.885Z,31.98
2022-08-17T11:38:00.694Z,31.99
2022-08-17T11:40:36.421Z,31.93
2022-08-17T11:43:29.034Z,31.94
2022-08-17T11:46:05.235Z,31.95
2022-08-17T11:48:42.698Z,31.79
2022-08-17T11:51:13.686Z,31.98
2022-08-17T11:53:41.001Z,31.97
2022-08-17T11:56:08.233Z,31.84
2022-08-17T11:58:40.848Z,31.71
2022-08-17T12:01:13.792Z,31.72
2022-08-17T12:03:54.068Z,31.88
2022-08-17T12:06:30.450Z,31.90
2022-08-17T12:09:13.614Z,32.03
2022-08-17T12:11:58.590Z,31.98
2022-08-17T12:15:05.798Z,31.90
2022-08-17T12:17:40.167Z,32.00
2022-08-17T12:20:14.800Z,32.03
2022-08-17T12:22:49.153Z,32.23
2022-08-17T12:25:26.061Z,32.23
2022-08-17T12:28:04.940Z,32.22
2022-08-17T12:30:38.309Z,32.24
2022-08-17T12:33:11.738Z,32.28
2022-08-17T12:35:39.206Z,32.34
2022-08-17T12:38:28.131Z,32.31
2022-08-17T12:41:03.670Z,32.24
2022-08-17T12:43:31.266Z,32.26
2022-08-17T12:46:14.970Z,32.31
2022-08-17T12:48:54.990Z,32.28
2022-08-17T12:51:27.863Z,32.26
2022-08-17T12:53:58.075Z,32.15
2022-08-17T12:56:25.428Z,31.97
2022-08-17T12:58:56.654Z,31.94
2022-08-17T13:01:24.163Z,31.94
2022-08-17T13:03:55.759Z,31.84
2022-08-17T13:06:33.825Z,31.82
2022-08-17T13:09:12.167Z,31.67
2022-08-17T13:11:56.037Z,31.65
2022-08-17T13:14:27.124Z,31.96
2022-08-17T13:17:00.217Z,31.84
2022-08-17T13:19:40.845Z,31.82
2022-08-17T13:22:11.599Z,31.86
2022-08-17T13:24:48.985Z,31.69
2022-08-17T13:27:19.668Z,31.60
2022-08-17T13:29:52.819Z,31.56
2022-08-17T13:32:39.855Z,31.35
2022-08-17T13:35:39.076Z,31.23
2022-08-17T13:38:32.635Z,31.09
2022-08-17T13:41:00.973Z,30.88
2022-08-17T13:43:43.704Z,30.74
2022-08-17T13:46:21.242Z,30.71
2022-08-17T13:49:00.342Z,30.77
2022-08-17T13:51:41.797Z,30.69
2022-08-17T13:54:19.194Z,30.63
2022-08-17T13:56:53.398Z,30.69
2022-08-17T13:59:53.881Z,30.64
2022-08-17T14:02:23.086Z,30.55
2022-08-17T14:05:06.115Z,30.49
2022-08-17T14:07:39.201Z,30.43
2022-08-17T14:10:13.155Z,30.33
2022-08-17T14:12:45.276Z,30.25
2022-08-17T14:15:18.373Z,30.20
2022-08-17T14:17:46.119Z,30.23
2022-08-17T14:20:16.947Z,30.30
2022-08-17T14:22:45.340Z,30.33
2022-08-17T14:25:13.987Z,30.31
2022-08-17T14:27:47.138Z,30.25
2022-08-17T14:30:25.660Z,30.32
2022-08-17T14:32:58.095Z,30.43
2022-08-17T14:35:28.879Z,30.45
2022-08-17T14:37:59.474Z,30.52
2022-08-17T14:40:30.143Z,30.56
2022-08-17T14:42:57.878Z,30.52
2022-08-17T14:45:33.575Z,30.47
2022-08-17T14:48:02.564Z,30.44
2022-08-17T14:50:32.103Z,30.57
2022-08-17T14:53:03.641Z,30.62
2022-08-17T14:55:34.397Z,30.62
2022-08-17T14:58:04.782Z,30.60
2022-08-17T15:00:33.024Z,30.55
2022-08-17T15:03:01.645Z,30.53
2022-08-17T15:05:33.890Z,30.43
2022-08-17T15:08:07.394Z,30.39
2022-08-17T15:10:40.440Z,30.30
2022-08-17T15:13:16.137Z,30.26
2022-08-17T15:15:49.314Z,30.15
2022-08-17T15:18:20.507Z,30.18
2022-08-17T15:20:53.481Z,30.19
2022-08-17T15:23:23.891Z,30.19
2022-08-17T15:25:54.110Z,30.15
2022-08-17T15:28:25.591Z,30.15
2022-08-17T15:30:54.165Z,30.22
2022-08-17T15:33:30.894Z,30.20
2022-08-17T15:36:02.488Z,30.22
2022-08-17T15:38:36.190Z,30.20
2022-08-17T15:41:06.466Z,30.21
2022-08-17T15:43:42.747Z,30.19
2022-08-17T15:46:15.374Z,30.15
2022-08-17T15:48:47.571Z,30.01
2022-08-17T15:51:41.754Z,29.96
2022-08-17T15:54:19.057Z,29.94
2022-08-17T15:56:53.947Z,29.93
2022-08-17T15:59:21.816Z,29.97
2022-08-17T16:03:13.587Z,30.02
2022-08-17T16:04:43.953Z,30.00
2022-08-17T16:07:15.352Z,30.21
2022-08-17T16:09:43.643Z,30.23
2022-08-17T16:12:18.432Z,30.23
2022-08-17T16:14:47.039Z,30.28
2022-08-17T16:17:38.851Z,30.42
2022-08-17T16:20:09.901Z,30.32
2022-08-17T16:22:49.888Z,30.30
2022-08-17T16:25:23.578Z,30.29
2022-08-17T16:28:11.112Z,30.16
2022-08-17T16:30:39.195Z,30.03
2022-08-17T16:33:10.624Z,29.96
2022-08-17T16:35:38.365Z,29.86
2022-08-17T16:38:08.414Z,29.81
2022-08-17T16:40:39.552Z,29.78
2022-08-17T16:43:07.372Z,29.74
2022-08-17T16:45:35.726Z,29.65
2022-08-17T16:48:03.239Z,29.55
2022-08-17T16:50:30.829Z,29.45
2022-08-17T16:53:06.361Z,29.40
2022-08-17T16:55:37.786Z,29.27
2022-08-17T16:58:08.152Z,29.19
2022-08-17T17:00:39.023Z,29.13
2022-08-17T17:03:18.919Z,29.03
2022-08-17T17:06:06.454Z,28.97
2022-08-17T17:08:51.245Z,28.90
2022-08-17T17:11:24.445Z,28.81
2022-08-17T17:13:56.971Z,28.72
2022-08-17T17:16:33.277Z,28.68
2022-08-17T17:19:11.723Z,28.61
2022-08-17T17:21:39.181Z,28.52
2022-08-17T17:24:10.104Z,28.46
2022-08-17T17:26:45.556Z,28.35
2022-08-17T17:29:15.756Z,28.20
2022-08-17T17:31:56.439Z,28.25
2022-08-17T17:34:34.657Z,28.17
2022-08-17T17:37:05.354Z,28.12
2022-08-17T17:39:43.809Z,28.08
2022-08-17T17:42:20.153Z,27.96
2022-08-17T17:44:58.661Z,27.90
2022-08-17T17:47:26.350Z,27.89
2022-08-17T17:49:54.103Z,27.88
2022-08-17T17:52:27.436Z,27.84
2022-08-17T17:55:00.958Z,27.81
2022-08-17T17:57:31.524Z,27.75
2022-08-17T18:00:06.850Z,27.73
2022-08-17T18:02:43.644Z,27.71
2022-08-17T18:05:32.728Z,27.65
2022-08-17T18:08:32.441Z,27.61
2022-08-17T18:11:24.064Z,27.54
2022-08-17T18:14:03.823Z,27.43
2022-08-17T18:16:34.813Z,27.33
2022-08-17T18:19:06.151Z,27.26
2022-08-17T18:21:45.571Z,27.21
2022-08-17T18:24:28.088Z,27.15
2022-08-17T18:26:57.205Z,27.04
2022-08-17T18:29:34.169Z,26.98
2022-08-17T18:32:21.383Z,26.97
2022-08-17T18:35:12.040Z,26.88
2022-08-17T18:37:42.750Z,26.82
2022-08-17T18:40:18.501Z,26.78
2022-08-17T18:42:54.961Z,26.77
2022-08-17T18:45:37.691Z,26.76
2022-08-17T18:48:17.953Z,26.66
2022-08-17T18:50:53.757Z,26.56
2022-08-17T18:53:26.687Z,26.58
2022-08-17T18:56:16.765Z,26.58
2022-08-17T18:58:50.860Z,26.58
2022-08-17T19:01:20.323Z,26.51
2022-08-17T19:03:49.055Z,26.40
2022-08-17T19:06:25.383Z,26.44
2022-08-17T19:08:52.869Z,26.42
2022-08-17T19:11:29.473Z,26.38
2022-08-17T19:13:58.803Z,26.34
2022-08-17T19:16:26.039Z,26.27
2022-08-17T19:19:02.668Z,26.22
2022-08-17T19:21:35.048Z,26.17
2022-08-17T19:24:32.237Z,26.18
2022-08-17T19:27:06.539Z,26.11
2022-08-17T19:29:39.141Z,25.88
2022-08-17T19:32:07.105Z,25.92
2022-08-17T19:34:37.869Z,25.85
2022-08-17T19:37:05.260Z,25.85
2022-08-17T19:39:41.762Z,25.91
2022-08-17T19:42:31.356Z,25.92
2022-08-17T19:45:07.967Z,25.90
2022-08-17T19:48:04.987Z,25.84
2022-08-17T19:50:35.737Z,25.86
2022-08-17T19:53:47.439Z,25.87
2022-08-17T19:56:41.487Z,25.76
2022-08-17T19:59:36.036Z,25.78
2022-08-17T20:02:30.813Z,25.81
2022-08-17T20:05:03.188Z,25.73
2022-08-17T20:07:42.127Z,25.70
2022-08-17T20:10:13.696Z,25.69
2022-08-17T20:12:43.341Z,25.71
2022-08-17T20:15:22.652Z,25.67
2022-08-17T20:17:50.593Z,25.56
2022-08-17T20:20:30.513Z,25.48
2022-08-17T20:23:29.108Z,25.45
2022-08-17T20:26:05.472Z,25.30
2022-08-17T20:28:34.315Z,25.32
2022-08-17T20:31:02.330Z,25.24
2022-08-17T20:33:54.119Z,25.48
2022-08-17T20:37:04.485Z,25.53
2022-08-17T20:39:59.124Z,25.31
2022-08-17T20:42:54.342Z,25.22
2022-08-17T20:45:52.613Z,25.21
2022-08-17T20:48:48.744Z,25.09
2022-08-17T20:52:00.709Z,25.03
2022-08-17T20:54:55.894Z,24.87
2022-08-17T20:57:50.455Z,24.91
2022-08-17T21:01:05.613Z,24.90
2022-08-17T21:03:57.123Z,24.82
2022-08-17T21:07:08.035Z,24.87
2022-08-17T21:10:19.189Z,24.69
2022-08-17T21:13:11.421Z,24.64
2022-08-17T21:16:22.208Z,24.75
2022-08-17T21:19:17.229Z,24.80
2022-08-17T21:22:09.065Z,24.83
2022-08-17T21:25:04.227Z,24.72
2022-08-17T21:28:08.760Z,24.59
2022-08-17T21:31:23.086Z,24.61
2022-08-17T21:34:25.433Z,24.52
2022-08-17T21:37:24.266Z,24.51
2022-08-17T21:40:23.800Z,24.52
2022-08-17T21:43:20.049Z,24.44
2022-08-17T21:46:32.299Z,24.36
2022-08-17T21:49:27.058Z,24.37
2022-08-17T21:52:20.998Z,24.38
2022-08-17T21:55:30.298Z,24.23
2022-08-17T21:58:32.757Z,23.97
2022-08-17T22:01:43.945Z,24.02
2022-08-17T22:04:57.694Z,24.12
2022-08-17T22:08:05.033Z,24.09
2022-08-17T22:11:15.844Z,24.12
2022-08-17T22:14:17.563Z,23.91
2022-08-17T22:17:35.999Z,23.77
2022-08-17T22:20:35.603Z,23.68
2022-08-17T22:23:40.538Z,23.67
2022-08-17T22:27:03.911Z,23.64
2022-08-17T22:30:17.424Z,23.65
2022-08-17T22:33:36.874Z,23.55
2022-08-17T22:36:42.506Z,23.53
2022-08-17T22:39:44.415Z,23.54
2022-08-17T22:42:49.833Z,23.49
2022-08-17T22:45:52.170Z,23.43
2022-08-17T22:48:56.211Z,23.37
2022-08-17T22:52:11.094Z,23.39
2022-08-17T22:55:27.983Z,23.47
2022-08-17T23:01:33.332Z,23.44
2022-08-17T23:04:39.407Z,23.51
2022-08-17T23:07:50.706Z,23.51
2022-08-17T23:14:19.372Z,23.37
2022-08-17T23:17:14.986Z,23.37
2022-08-17T23:20:19.468Z,23.32
2022-08-17T23:23:25.201Z,23.33
2022-08-17T23:26:30.680Z,23.37
2022-08-17T23:29:45.264Z,23.29
2022-08-17T23:32:53.314Z,23.15
2022-08-17T23:42:22.244Z,23.01
2022-08-17T23:45:14.704Z,23.05
2022-08-17T23:48:09.487Z,23.11
2022-08-17T23:51:04.024Z,23.08
2022-08-17T23:54:07.169Z,23.05
2022-08-17T23:57:06.500Z,23.00
2022-08-17T23:59:57.861Z,22.95
